createdAt,value
2019-01-29T00:00:53.970Z,0.58
2019-01-29T00:03:25.525Z,0.63
2019-01-29T00:05:56.598Z,0.63
2019-01-29T00:08:27.739Z,0.76
2019-01-29T00:10:59.083Z,0.47
2019-01-29T00:13:30.225Z,0.49
2019-01-29T00:16:02.448Z,0.41
2019-01-29T00:18:34.582Z,0.42
2019-01-29T00:21:05.668Z,0.46
2019-01-29T00:23:37.062Z,0.49
2019-01-29T00:26:08.344Z,0.67
2019-01-29T00:28:39.467Z,0.68
2019-01-29T00:31:10.620Z,0.52
2019-01-29T00:33:41.985Z,0.61
2019-01-29T00:36:12.996Z,0.59
2019-01-29T00:38:44.205Z,0.64
2019-01-29T00:41:15.353Z,0.62
2019-01-29T00:43:46.572Z,0.62
2019-01-29T00:46:17.602Z,0.70
2019-01-29T00:48:48.654Z,0.68
2019-01-29T00:51:19.749Z,0.70
2019-01-29T00:53:50.834Z,0.59
2019-01-29T00:56:21.977Z,0.63
2019-01-29T00:58:54.107Z,0.68
2019-01-29T01:01:25.316Z,0.50
2019-01-29T01:03:56.368Z,0.47
2019-01-29T01:06:27.437Z,0.47
2019-01-29T01:08:58.542Z,0.46
2019-01-29T01:11:29.775Z,0.44
2019-01-29T01:14:01.909Z,0.45
2019-01-29T01:16:33.254Z,0.46
2019-01-29T01:19:04.483Z,0.41
2019-01-29T01:21:35.668Z,0.47
2019-01-29T01:24:06.835Z,0.36
2019-01-29T01:26:37.983Z,0.39
2019-01-29T01:29:09.036Z,0.37
2019-01-29T01:31:40.115Z,0.28
2019-01-29T01:34:11.120Z,0.36
2019-01-29T01:36:42.282Z,0.22
2019-01-29T01:39:13.463Z,0.23
2019-01-29T01:41:46.307Z,0.27
2019-01-29T01:44:17.361Z,0.26
2019-01-29T01:46:48.426Z,0.17
2019-01-29T01:49:19.544Z,0.28
2019-01-29T01:51:50.698Z,0.05
2019-01-29T01:54:21.820Z,0.11
2019-01-29T01:56:52.883Z,0.03
2019-01-29T01:59:23.855Z,0.06
2019-01-29T02:01:54.950Z,-0.10
2019-01-29T02:04:26.060Z,-0.12
2019-01-29T02:06:57.131Z,-0.06
2019-01-29T02:09:28.476Z,-0.19
2019-01-29T02:11:59.796Z,-0.26
2019-01-29T02:14:30.989Z,-0.14
2019-01-29T02:17:02.264Z,-0.17
2019-01-29T02:19:33.467Z,-0.13
2019-01-29T02:22:05.134Z,-0.08
2019-01-29T02:24:36.301Z,-0.05
2019-01-29T02:27:07.400Z,-0.14
2019-01-29T02:29:38.528Z,-0.03
2019-01-29T02:32:09.619Z,-0.24
2019-01-29T02:34:40.783Z,-0.21
2019-01-29T02:37:11.978Z,-0.25
2019-01-29T02:39:42.973Z,-0.23
2019-01-29T02:42:14.062Z,-0.11
2019-01-29T02:44:46.266Z,-0.11
2019-01-29T02:47:17.296Z,-0.04
2019-01-29T02:49:48.576Z,-0.12
2019-01-29T02:52:19.760Z,-0.14
2019-01-29T02:54:50.853Z,-0.05
2019-01-29T02:57:21.995Z,0.03
2019-01-29T02:59:53.039Z,0.15
2019-01-29T03:02:24.189Z,-0.02
2019-01-29T03:04:55.315Z,0.03
2019-01-29T03:07:26.464Z,0.11
2019-01-29T03:09:58.839Z,-0.10
2019-01-29T03:12:30.252Z,-0.11
2019-01-29T03:15:01.284Z,-0.12
2019-01-29T03:17:32.415Z,-0.07
2019-01-29T03:20:04.587Z,-0.02
2019-01-29T03:22:35.801Z,-0.19
2019-01-29T03:25:08.096Z,-0.22
2019-01-29T03:27:39.627Z,-0.08
2019-01-29T03:30:13.231Z,-0.11
2019-01-29T03:32:44.598Z,-0.09
2019-01-29T03:35:15.858Z,-0.27
2019-01-29T03:37:47.089Z,-0.13
2019-01-29T03:40:21.178Z,-0.25
2019-01-29T03:42:52.336Z,-0.25
2019-01-29T03:45:24.484Z,-0.28
2019-01-29T03:47:56.720Z,-0.23
2019-01-29T03:50:29.211Z,-0.07
2019-01-29T03:53:00.508Z,0.05
2019-01-29T03:55:31.714Z,-0.08
2019-01-29T03:58:02.878Z,-0.07
2019-01-29T04:00:34.012Z,-0.08
2019-01-29T04:03:05.353Z,-0.23
2019-01-29T04:05:36.419Z,-0.01
2019-01-29T04:08:07.655Z,-0.07
2019-01-29T04:10:38.765Z,-0.01
2019-01-29T04:13:09.926Z,0.11
2019-01-29T04:15:41.043Z,-0.14
2019-01-29T04:18:12.177Z,-0.15
2019-01-29T04:20:43.340Z,-0.15
2019-01-29T04:23:14.506Z,-0.07
2019-01-29T04:25:45.656Z,-0.11
2019-01-29T04:28:16.734Z,-0.11
2019-01-29T04:30:47.880Z,-0.26
2019-01-29T04:33:18.970Z,-0.19
2019-01-29T04:35:50.025Z,-0.18
2019-01-29T04:38:21.190Z,-0.19
2019-01-29T04:40:52.221Z,-0.31
2019-01-29T04:43:24.407Z,-0.19
2019-01-29T04:45:55.574Z,-0.39
2019-01-29T04:48:26.833Z,-0.32
2019-01-29T04:50:57.996Z,-0.34
2019-01-29T04:53:29.219Z,-0.34
2019-01-29T04:56:01.229Z,-0.37
2019-01-29T04:58:32.312Z,-0.44
2019-01-29T05:01:03.448Z,-0.45
2019-01-29T05:03:34.514Z,-0.32
2019-01-29T05:06:05.866Z,-0.34
2019-01-29T05:08:36.961Z,-0.26
2019-01-29T05:11:08.017Z,-0.25
2019-01-29T05:13:39.357Z,-0.34
2019-01-29T05:16:10.523Z,-0.31
2019-01-29T05:18:41.842Z,-0.24
2019-01-29T05:21:13.055Z,-0.17
2019-01-29T05:23:44.339Z,-0.36
2019-01-29T05:26:15.520Z,-0.29
2019-01-29T05:28:46.806Z,-0.39
2019-01-29T05:31:17.970Z,-0.29
2019-01-29T05:33:49.173Z,-0.28
2019-01-29T05:36:20.246Z,-0.16
2019-01-29T05:38:51.341Z,-0.31
2019-01-29T05:41:22.476Z,-0.32
2019-01-29T05:43:53.503Z,-0.39
2019-01-29T05:46:25.283Z,-0.33
2019-01-29T05:48:56.585Z,-0.24
2019-01-29T05:51:27.645Z,-0.22
2019-01-29T05:53:58.706Z,-0.18
2019-01-29T05:56:29.791Z,-0.22
2019-01-29T05:59:00.885Z,-0.11
2019-01-29T06:01:32.097Z,-0.25
2019-01-29T06:04:03.243Z,-0.12
2019-01-29T06:06:34.255Z,0.08
2019-01-29T06:09:08.608Z,0.13
2019-01-29T06:11:39.729Z,-0.01
2019-01-29T06:14:10.947Z,0.05
2019-01-29T06:16:42.109Z,-0.11
2019-01-29T06:19:13.390Z,-0.21
2019-01-29T06:21:44.732Z,-0.26
2019-01-29T06:24:24.858Z,-0.08
2019-01-29T06:26:48.754Z,-0.04
2019-01-29T06:29:20.010Z,-0.23
2019-01-29T06:31:51.246Z,-0.21
2019-01-29T06:34:22.446Z,-0.15
2019-01-29T06:36:54.749Z,-0.08
2019-01-29T06:39:25.842Z,-0.11
2019-01-29T06:41:57.262Z,-0.05
2019-01-29T06:44:28.340Z,-0.11
2019-01-29T06:46:59.446Z,-0.19
2019-01-29T06:49:30.524Z,-0.09
2019-01-29T06:52:01.761Z,-0.04
2019-01-29T06:54:34.293Z,0.06
2019-01-29T06:57:05.758Z,0.12
2019-01-29T06:59:36.959Z,0.07
2019-01-29T07:02:08.396Z,0.01
2019-01-29T07:04:39.629Z,0.18
2019-01-29T07:07:10.808Z,0.08
2019-01-29T07:09:42.046Z,0.11
2019-01-29T07:12:13.131Z,0.27
2019-01-29T07:14:44.305Z,0.41
2019-01-29T07:17:28.951Z,0.39
2019-01-29T07:20:02.790Z,0.11
2019-01-29T07:22:34.013Z,0.14
2019-01-29T07:25:07.179Z,0.23
2019-01-29T07:27:38.315Z,0.20
2019-01-29T07:30:12.512Z,0.30
2019-01-29T07:32:43.592Z,0.45
2019-01-29T07:35:14.821Z,0.21
2019-01-29T07:37:45.888Z,0.19
2019-01-29T07:40:17.059Z,0.26
2019-01-29T07:42:48.230Z,0.40
2019-01-29T07:45:19.491Z,0.31
2019-01-29T07:47:50.641Z,0.34
2019-01-29T07:50:21.833Z,0.15
2019-01-29T07:52:53.097Z,0.13
2019-01-29T07:55:24.326Z,0.26
2019-01-29T07:57:55.420Z,0.18
2019-01-29T08:00:26.606Z,0.20
2019-01-29T08:02:57.790Z,0.33
2019-01-29T08:05:28.940Z,0.31
2019-01-29T08:07:59.984Z,0.33
2019-01-29T08:10:31.051Z,0.41
2019-01-29T08:13:02.079Z,0.28
2019-01-29T08:15:33.226Z,0.52
2019-01-29T08:18:04.556Z,0.68
2019-01-29T08:20:35.764Z,0.60
2019-01-29T08:23:07.115Z,0.80
2019-01-29T08:25:38.284Z,0.78
2019-01-29T08:28:09.441Z,0.64
2019-01-29T08:30:40.675Z,0.78
2019-01-29T08:33:11.878Z,0.83
2019-01-29T08:35:43.125Z,0.78
2019-01-29T08:38:14.195Z,0.56
2019-01-29T08:40:45.220Z,0.67
2019-01-29T08:43:16.309Z,0.55
2019-01-29T08:45:47.523Z,0.84
2019-01-29T08:48:18.773Z,0.67
2019-01-29T08:50:49.930Z,0.61
2019-01-29T08:53:21.068Z,0.72
2019-01-29T08:55:52.279Z,0.95
2019-01-29T08:58:27.143Z,0.85
2019-01-29T09:00:56.159Z,0.67
2019-01-29T09:03:27.325Z,1.16
2019-01-29T09:05:58.489Z,1.09
2019-01-29T09:08:29.548Z,1.57
2019-01-29T09:11:00.778Z,1.21
2019-01-29T09:13:31.932Z,1.10
2019-01-29T09:16:03.187Z,1.17
2019-01-29T09:18:34.333Z,0.77
2019-01-29T09:21:05.737Z,0.44
2019-01-29T09:23:37.018Z,-0.05
2019-01-29T09:26:08.252Z,0.29
2019-01-29T09:28:39.391Z,0.08
2019-01-29T09:31:10.530Z,0.15
2019-01-29T09:33:41.592Z,0.02
2019-01-29T09:36:12.853Z,-0.05
2019-01-29T09:38:44.021Z,-0.08
2019-01-29T09:41:15.116Z,0.02
2019-01-29T09:43:46.338Z,0.09
2019-01-29T09:46:17.507Z,0.20
2019-01-29T09:48:48.746Z,0.52
2019-01-29T09:51:19.865Z,0.24
2019-01-29T09:53:50.869Z,0.34
2019-01-29T09:56:21.853Z,0.50
2019-01-29T09:58:52.926Z,0.59
2019-01-29T10:01:24.004Z,0.78
2019-01-29T10:03:54.968Z,0.79
2019-01-29T10:06:26.110Z,0.94
2019-01-29T10:08:57.160Z,1.09
2019-01-29T10:11:28.632Z,0.93
2019-01-29T10:13:59.830Z,0.85
2019-01-29T10:16:31.039Z,0.96
2019-01-29T10:19:02.111Z,1.09
2019-01-29T10:21:33.249Z,1.24
2019-01-29T10:24:04.749Z,1.50
2019-01-29T10:26:35.917Z,1.61
2019-01-29T10:29:07.015Z,1.34
2019-01-29T10:31:38.232Z,1.66
2019-01-29T10:34:09.309Z,1.28
2019-01-29T10:36:40.475Z,1.74
2019-01-29T10:39:11.532Z,2.14
2019-01-29T10:41:42.686Z,1.85
2019-01-29T10:44:13.810Z,1.48
2019-01-29T10:46:44.966Z,1.66
2019-01-29T10:49:16.013Z,2.28
2019-01-29T10:51:47.757Z,2.61
2019-01-29T10:54:18.958Z,2.74
2019-01-29T10:56:50.100Z,3.65
2019-01-29T10:59:21.212Z,4.51
2019-01-29T11:01:52.368Z,4.47
2019-01-29T11:04:23.413Z,3.21
2019-01-29T11:06:54.717Z,3.57
2019-01-29T11:09:25.857Z,3.84
2019-01-29T11:11:56.965Z,3.87
2019-01-29T11:14:28.792Z,3.82
2019-01-29T11:17:00.054Z,4.11
2019-01-29T11:19:31.204Z,3.60
2019-01-29T11:22:02.330Z,2.96
2019-01-29T11:24:33.473Z,3.81
2019-01-29T11:27:05.007Z,4.39
2019-01-29T11:29:36.145Z,4.71
2019-01-29T11:32:07.267Z,4.72
2019-01-29T11:34:38.246Z,5.07
2019-01-29T11:37:09.326Z,5.46
2019-01-29T11:39:40.510Z,6.58
2019-01-29T11:42:11.653Z,6.08
2019-01-29T11:44:42.789Z,6.39
2019-01-29T11:47:13.947Z,8.49
2019-01-29T11:49:45.086Z,9.24
2019-01-29T11:52:16.250Z,9.87
2019-01-29T11:54:47.307Z,9.23
2019-01-29T11:57:18.695Z,14.89
2019-01-29T11:59:49.894Z,11.77
2019-01-29T12:02:28.329Z,14.43
2019-01-29T12:04:53.877Z,16.84
2019-01-29T12:07:25.085Z,20.17
2019-01-29T12:09:56.678Z,20.82
2019-01-29T12:12:27.968Z,22.15
2019-01-29T12:14:59.025Z,25.06
2019-01-29T12:17:30.188Z,23.09
2019-01-29T12:20:01.190Z,18.91
2019-01-29T12:22:32.356Z,16.02
2019-01-29T12:25:03.867Z,13.54
2019-01-29T12:27:35.068Z,10.59
2019-01-29T12:30:10.465Z,9.36
2019-01-29T12:32:41.553Z,7.84
2019-01-29T12:35:12.700Z,7.03
2019-01-29T12:37:43.876Z,6.20
2019-01-29T12:40:15.192Z,7.27
2019-01-29T12:42:46.415Z,6.90
2019-01-29T12:45:18.457Z,6.12
2019-01-29T12:47:49.861Z,4.85
2019-01-29T12:50:22.655Z,4.70
2019-01-29T12:53:19.173Z,4.36
2019-01-29T12:55:50.330Z,4.23
2019-01-29T12:58:21.412Z,3.76
2019-01-29T13:00:56.831Z,4.19
2019-01-29T13:03:28.016Z,4.05
2019-01-29T13:05:59.190Z,4.29
2019-01-29T13:08:30.330Z,4.21
2019-01-29T13:11:01.561Z,4.89
2019-01-29T13:13:32.696Z,6.36
2019-01-29T13:16:03.822Z,6.89
2019-01-29T13:18:34.910Z,7.30
2019-01-29T13:21:06.062Z,6.91
2019-01-29T13:23:37.270Z,5.79
2019-01-29T13:26:08.439Z,5.39
2019-01-29T13:28:39.634Z,5.36
2019-01-29T13:31:10.707Z,5.54
2019-01-29T13:33:41.883Z,5.46
2019-01-29T13:36:13.008Z,5.54
2019-01-29T13:38:44.109Z,5.52
2019-01-29T13:41:15.234Z,4.64
2019-01-29T13:43:46.372Z,4.76
2019-01-29T13:46:17.601Z,5.00
2019-01-29T13:48:48.747Z,4.87
2019-01-29T13:51:19.889Z,5.05
2019-01-29T13:53:51.032Z,5.02
2019-01-29T13:56:22.200Z,5.11
2019-01-29T13:58:53.270Z,5.25
2019-01-29T14:01:24.325Z,5.01
2019-01-29T14:03:55.457Z,5.01
2019-01-29T14:06:26.524Z,5.33
2019-01-29T14:08:57.772Z,6.56
2019-01-29T14:11:28.900Z,12.12
2019-01-29T14:14:00.943Z,14.31
2019-01-29T14:16:32.123Z,12.80
2019-01-29T14:19:03.301Z,10.84
2019-01-29T14:21:34.455Z,9.81
2019-01-29T14:24:05.787Z,9.04
2019-01-29T14:26:36.894Z,8.57
2019-01-29T14:29:07.967Z,8.17
2019-01-29T14:31:39.103Z,6.97
2019-01-29T14:34:10.359Z,6.52
2019-01-29T14:36:41.489Z,6.38
2019-01-29T14:39:22.689Z,6.12
2019-01-29T14:41:53.671Z,5.61
2019-01-29T14:44:34.537Z,5.01
2019-01-29T14:47:05.679Z,4.76
2019-01-29T14:49:36.751Z,4.14
2019-01-29T14:54:50.138Z,4.21
2019-01-29T14:57:21.124Z,4.01
2019-01-29T14:59:52.230Z,3.75
2019-01-29T15:02:23.359Z,3.90
2019-01-29T15:04:54.530Z,3.78
2019-01-29T15:07:30.488Z,3.96
2019-01-29T15:09:58.468Z,3.98
2019-01-29T15:12:29.524Z,4.17
2019-01-29T15:15:01.726Z,4.41
2019-01-29T15:17:38.412Z,5.84
2019-01-29T15:20:10.959Z,7.59
2019-01-29T15:22:43.448Z,7.78
2019-01-29T15:25:14.678Z,9.18
2019-01-29T15:27:45.908Z,8.09
2019-01-29T15:30:20.375Z,7.41
2019-01-29T15:32:51.495Z,6.36
2019-01-29T15:35:22.787Z,6.15
2019-01-29T15:37:54.709Z,5.51
2019-01-29T15:40:25.969Z,5.20
2019-01-29T15:42:57.293Z,4.18
2019-01-29T15:45:28.480Z,3.79
2019-01-29T15:47:59.704Z,3.37
2019-01-29T15:50:31.296Z,3.30
2019-01-29T15:53:02.888Z,3.12
2019-01-29T15:55:34.063Z,3.17
2019-01-29T15:58:07.012Z,2.81
2019-01-29T16:00:38.737Z,2.40
2019-01-29T16:03:09.871Z,2.41
2019-01-29T16:05:41.257Z,2.36
2019-01-29T16:08:12.767Z,2.11
2019-01-29T16:10:44.201Z,2.00
2019-01-29T16:13:15.333Z,1.80
2019-01-29T16:15:46.530Z,1.80
2019-01-29T16:18:17.690Z,1.75
2019-01-29T16:20:48.892Z,1.55
2019-01-29T16:23:19.956Z,1.49
2019-01-29T16:25:51.091Z,1.33
2019-01-29T16:28:22.268Z,1.08
2019-01-29T16:30:53.445Z,1.12
2019-01-29T16:33:24.593Z,1.15
2019-01-29T16:35:55.663Z,0.99
2019-01-29T16:38:26.722Z,1.03
2019-01-29T16:41:00.491Z,1.19
2019-01-29T16:43:30.820Z,1.21
2019-01-29T16:46:01.935Z,1.15
2019-01-29T16:48:34.240Z,0.96
2019-01-29T16:51:05.397Z,0.83
2019-01-29T16:53:37.491Z,0.65
2019-01-29T16:56:10.542Z,0.92
2019-01-29T16:58:41.660Z,0.89
2019-01-29T17:01:31.313Z,0.84
2019-01-29T17:04:02.786Z,1.08
2019-01-29T17:06:33.798Z,0.86
2019-01-29T17:09:09.402Z,0.67
2019-01-29T17:11:40.492Z,0.67
2019-01-29T17:14:11.570Z,0.62
2019-01-29T17:16:43.747Z,0.67
2019-01-29T17:19:14.808Z,0.49
2019-01-29T17:21:45.947Z,0.49
2019-01-29T17:24:17.029Z,0.26
2019-01-29T17:26:48.108Z,0.45
2019-01-29T17:29:20.455Z,0.37
2019-01-29T17:31:51.541Z,0.23
2019-01-29T17:34:22.691Z,0.24
2019-01-29T17:36:53.961Z,0.16
2019-01-29T17:39:25.092Z,0.11
2019-01-29T17:41:56.443Z,-0.08
2019-01-29T17:44:27.615Z,0.07
2019-01-29T17:46:58.724Z,0.11
2019-01-29T17:49:29.782Z,0.15
2019-01-29T17:52:00.958Z,0.27
2019-01-29T17:54:32.009Z,0.05
2019-01-29T17:57:03.109Z,-0.11
2019-01-29T17:59:34.103Z,0.11
2019-01-29T18:02:05.980Z,-0.05
2019-01-29T18:04:37.042Z,0.17
2019-01-29T18:07:08.187Z,0.13
2019-01-29T18:09:39.326Z,0.07
2019-01-29T18:12:10.794Z,-0.10
2019-01-29T18:14:42.056Z,-0.15
2019-01-29T18:17:13.180Z,-0.21
2019-01-29T18:19:44.355Z,-0.34
2019-01-29T18:22:15.453Z,-0.38
2019-01-29T18:24:46.446Z,-0.19
2019-01-29T18:27:17.850Z,-0.15
2019-01-29T18:29:48.966Z,-0.34
2019-01-29T18:32:20.164Z,-0.43
2019-01-29T18:34:51.158Z,-0.53
2019-01-29T18:37:22.247Z,-0.20
2019-01-29T18:39:53.332Z,-0.25
2019-01-29T18:42:25.499Z,-0.54
2019-01-29T18:44:56.579Z,-0.50
2019-01-29T18:47:27.758Z,-0.37
2019-01-29T18:49:58.822Z,-0.57
2019-01-29T18:52:29.912Z,-0.71
2019-01-29T18:55:00.984Z,-0.71
2019-01-29T18:57:32.158Z,-0.53
2019-01-29T19:00:03.251Z,-0.64
2019-01-29T19:02:35.339Z,-0.67
2019-01-29T19:05:07.589Z,-0.76
2019-01-29T19:07:38.828Z,-0.84
2019-01-29T19:10:11.896Z,-0.80
2019-01-29T19:12:43.080Z,-0.85
2019-01-29T19:15:17.736Z,-0.94
2019-01-29T19:17:48.989Z,-0.79
2019-01-29T19:20:22.013Z,-0.73
2019-01-29T19:22:53.169Z,-0.93
2019-01-29T19:25:24.332Z,-0.89
2019-01-29T19:27:55.566Z,-0.82
2019-01-29T19:30:29.132Z,-1.11
2019-01-29T19:33:00.247Z,-0.87
2019-01-29T19:35:31.325Z,-0.97
2019-01-29T19:38:02.424Z,-1.09
2019-01-29T19:40:33.570Z,-1.00
2019-01-29T19:43:04.910Z,-0.92
2019-01-29T19:45:36.218Z,-0.88
2019-01-29T19:48:08.395Z,-0.91
2019-01-29T19:50:39.629Z,-1.02
2019-01-29T19:53:10.724Z,-1.17
2019-01-29T19:55:42.349Z,-1.23
2019-01-29T19:58:13.566Z,-0.78
2019-01-29T20:00:44.774Z,-0.90
2019-01-29T20:03:16.030Z,-1.08
2019-01-29T20:05:47.162Z,-1.03
2019-01-29T20:08:18.329Z,-1.05
2019-01-29T20:10:49.500Z,-1.10
2019-01-29T20:13:20.675Z,-1.10
2019-01-29T20:15:51.842Z,-1.32
2019-01-29T20:18:24.068Z,-1.24
2019-01-29T20:20:55.454Z,-1.15
2019-01-29T20:23:26.556Z,-1.41
2019-01-29T20:25:57.612Z,-1.26
2019-01-29T20:28:28.712Z,-1.29
2019-01-29T20:30:59.964Z,-1.36
2019-01-29T20:33:31.391Z,-1.56
2019-01-29T20:36:02.595Z,-1.55
2019-01-29T20:38:35.260Z,-1.61
2019-01-29T20:41:06.640Z,-1.54
2019-01-29T20:43:37.900Z,-1.75
2019-01-29T20:46:09.039Z,-1.49
2019-01-29T20:48:40.199Z,-1.70
2019-01-29T20:51:11.276Z,-1.74
2019-01-29T20:53:42.489Z,-1.34
2019-01-29T20:56:13.649Z,-1.45
2019-01-29T20:58:52.468Z,-1.52
2019-01-29T21:01:17.583Z,-1.52
2019-01-29T21:03:48.739Z,-1.33
2019-01-29T21:06:19.879Z,-1.49
2019-01-29T21:08:51.001Z,-1.32
2019-01-29T21:11:22.201Z,-1.45
2019-01-29T21:13:53.286Z,-1.53
2019-01-29T21:16:24.437Z,-1.88
2019-01-29T21:18:55.453Z,-1.68
2019-01-29T21:21:26.598Z,-1.79
2019-01-29T21:23:57.805Z,-1.70
2019-01-29T21:26:28.884Z,-1.90
2019-01-29T21:29:03.228Z,-1.84
2019-01-29T21:31:32.764Z,-1.67
2019-01-29T21:34:03.909Z,-1.95
2019-01-29T21:36:34.901Z,-1.73
2019-01-29T21:39:09.396Z,-1.95
2019-01-29T21:41:40.545Z,-1.89
2019-01-29T21:44:11.722Z,-1.86
2019-01-29T21:46:42.740Z,-2.05
2019-01-29T21:49:14.085Z,-1.84
2019-01-29T21:51:45.376Z,-1.93
2019-01-29T21:54:16.511Z,-2.01
2019-01-29T21:56:49.815Z,-1.54
2019-01-29T21:59:22.185Z,-1.62
2019-01-29T22:01:53.266Z,-1.66
2019-01-29T22:04:24.362Z,-1.76
2019-01-29T22:06:55.625Z,-1.73
2019-01-29T22:09:27.701Z,-2.04
2019-01-29T22:11:58.930Z,-2.12
2019-01-29T22:14:30.086Z,-1.99
2019-01-29T22:17:01.304Z,-2.17
2019-01-29T22:19:32.560Z,-2.10
2019-01-29T22:22:03.694Z,-2.16
2019-01-29T22:24:34.847Z,-2.46
2019-01-29T22:27:05.849Z,-2.03
2019-01-29T22:29:36.880Z,-2.20
2019-01-29T22:32:08.430Z,-1.95
2019-01-29T22:34:41.234Z,-2.18
2019-01-29T22:37:12.404Z,-2.10
2019-01-29T22:39:43.621Z,-2.24
2019-01-29T22:42:14.868Z,-1.91
2019-01-29T22:44:46.003Z,-2.41
2019-01-29T22:47:17.172Z,-2.33
2019-01-29T22:49:48.745Z,-2.25
2019-01-29T22:52:19.915Z,-2.19
2019-01-29T22:54:51.372Z,-2.40
2019-01-29T22:57:22.621Z,-2.27
2019-01-29T22:59:53.926Z,-2.51
2019-01-29T23:02:25.337Z,-2.52
2019-01-29T23:04:56.595Z,-2.60
2019-01-29T23:07:34.096Z,-2.55
2019-01-29T23:10:10.454Z,-2.69
2019-01-29T23:12:41.628Z,-2.48
2019-01-29T23:15:14.848Z,-2.57
2019-01-29T23:17:46.019Z,-2.59
2019-01-29T23:20:17.627Z,-2.71
2019-01-29T23:22:49.701Z,-2.57
2019-01-29T23:25:21.112Z,-2.85
2019-01-29T23:27:52.337Z,-2.82
2019-01-29T23:30:23.654Z,-2.90
2019-01-29T23:32:54.667Z,-2.65
2019-01-29T23:35:25.817Z,-2.82
2019-01-29T23:37:56.966Z,-2.86
2019-01-29T23:40:28.114Z,-2.93
2019-01-29T23:42:59.092Z,-2.82
2019-01-29T23:45:30.346Z,-2.91
2019-01-29T23:48:01.342Z,-2.88
2019-01-29T23:50:32.958Z,-2.85
2019-01-29T23:53:04.213Z,-2.99
2019-01-29T23:55:35.308Z,-3.14
2019-01-29T23:58:06.552Z,-2.91
